Terminal Aerodrome Forecast
Issued by NWS

Home | Current Version | Previous Version | Text Only | Print | Product List | Glossary On
Versions: 1 2 3 4 5 6 7 8 9 10 11 12 13 14 15 16 17 18 19 20 21 22 23 24 25
309
FTUS43 KLOT 101507 AAA
TAFDPA
TAF AMD
KDPA 101507Z 1015/1112 25006KT P6SM FEW020 BKN070
      TEMPO 1021/1022 2SM -SN BKN020
     FM102200 20007KT 1 1/2SM -SN SCT010 OVC020
     FM102300 18007KT 3/4SM -SN BKN008 OVC012
     FM110400 16009KT 1 1/2SM -SN SCT008 OVC015
     FM111000 15012KT 3/4SM -SN BR OVC012=

USA.gov is the U.S. government's official web portal to all federal, state and local government web resources and services.